Time;durP1;ratioP1;P1;durP2;ratioP2;P2;SDS_P1;SDS_P2;PMS_P1;PMS_P2;Temp;Humidity;BMP_temperature;BMP_pressure;BME280_temperature;BME280_humidity;BME280_pressure;Samples;Min_cycle;Max_cycle;Signal;HPM_P1;HPM_P2
2022/05/30 00:01:20;;;;;;;3.50;1.52;;;;;;;16.13;54.04;99477.22;1744288;81;21051;-75
2022/05/30 00:03:47;;;;;;;4.25;1.80;;;;;;;16.10;54.21;99477.38;1746485;81;21023;-76
2022/05/30 00:06:17;;;;;;;1.95;1.62;;;;;;;16.10;54.60;99466.83;1744425;81;21508;-75
2022/05/30 00:08:45;;;;;;;4.67;1.92;;;;;;;16.09;54.86;99471.57;1750429;81;21008;-74
2022/05/30 00:11:16;;;;;;;4.72;1.75;;;;;;;16.11;54.92;99475.37;1747960;82;21051;-73
2022/05/30 00:13:44;;;;;;;4.45;2.47;;;;;;;16.10;55.00;99465.44;1725155;82;21012;-77
2022/05/30 00:16:15;;;;;;;2.67;1.45;;;;;;;16.08;54.95;99463.02;1740639;82;20997;-72
2022/05/30 00:18:42;;;;;;;3.58;1.50;;;;;;;16.09;55.04;99455.50;1748373;82;21110;-76
2022/05/30 00:21:09;;;;;;;4.65;1.92;;;;;;;16.08;55.08;99453.30;1752116;81;21075;-75
2022/05/30 00:23:35;;;;;;;4.08;1.60;;;;;;;16.08;55.20;99452.48;1747500;81;21012;-69
2022/05/30 00:26:07;;;;;;;3.90;1.90;;;;;;;16.08;55.36;99453.30;1746558;81;21043;-77
2022/05/30 00:28:34;;;;;;;2.72;1.77;;;;;;;16.08;55.51;99458.04;1744694;81;21016;-73
2022/05/30 00:31:01;;;;;;;2.58;1.60;;;;;;;16.05;55.64;99451.24;1754087;81;22131;-72
2022/05/30 00:33:28;;;;;;;5.55;1.77;;;;;;;16.04;55.85;99462.93;1743101;81;21075;-73
2022/05/30 00:35:56;;;;;;;11.85;2.20;;;;;;;16.03;56.01;99461.91;1747424;81;21039;-73
2022/05/30 00:38:24;;;;;;;5.22;2.10;;;;;;;16.02;56.24;99459.70;1747623;81;21040;-74
2022/05/30 00:40:53;;;;;;;3.42;1.80;;;;;;;16.01;56.66;99460.87;1743492;81;21623;-70
2022/05/30 00:43:29;;;;;;;2.40;1.87;;;;;;;16.01;57.05;99456.70;1720918;81;21800;-74
2022/05/30 00:45:58;;;;;;;3.42;1.92;;;;;;;16.01;57.34;99449.76;1749207;81;21019;-75
2022/05/30 00:48:36;;;;;;;3.70;1.60;;;;;;;16.01;57.53;99446.17;1747069;82;21031;-75
2022/05/30 00:51:16;;;;;;;4.90;1.90;;;;;;;15.99;57.89;99443.75;1738246;82;21099;-68
2022/05/30 00:53:45;;;;;;;6.37;1.67;;;;;;;15.99;58.07;99446.53;1751178;81;21019;-76
2022/05/30 00:56:13;;;;;;;3.35;2.00;;;;;;;16.00;58.25;99424.52;1734788;82;21109;-74
2022/05/30 00:58:47;;;;;;;3.55;2.00;;;;;;;15.99;58.43;99415.96;1762271;80;21540;-71
2022/05/30 01:01:14;;;;;;;4.85;1.85;;;;;;;15.98;58.73;99396.27;1738934;82;21624;-77
2022/05/30 01:06:35;;;;;;;4.45;2.20;;;;;;;15.92;58.93;99393.52;1770378;80;20989;-68
2022/05/30 01:09:11;;;;;;;9.93;2.55;;;;;;;15.89;59.11;99385.91;1730444;82;21150;-68
2022/05/30 01:11:57;;;;;;;5.30;2.33;;;;;;;15.86;59.50;99378.30;1720437;81;21087;-71
2022/05/30 01:14:28;;;;;;;5.08;1.98;;;;;;;15.80;59.85;99366.65;1741106;82;21110;-72
2022/05/30 01:16:56;;;;;;;3.75;2.30;;;;;;;15.75;60.01;99355.81;1744463;81;21126;-76
2022/05/30 01:19:52;;;;;;;8.65;2.05;;;;;;;15.70;60.13;99343.02;1741861;82;21088;-78
2022/05/30 01:22:52;;;;;;;3.30;1.75;;;;;;;15.67;60.33;99331.23;1753535;81;21461;-77
2022/05/30 01:25:51;;;;;;;2.62;1.98;;;;;;;15.62;60.48;99339.84;1731975;82;21027;-77
2022/05/30 01:28:34;;;;;;;5.62;2.08;;;;;;;15.57;60.67;99344.48;1735276;82;21508;-77
2022/05/30 01:31:01;;;;;;;5.75;2.30;;;;;;;15.52;61.11;99350.33;1715012;82;21015;-73
2022/05/30 01:33:28;;;;;;;4.33;1.95;;;;;;;15.47;61.41;99347.01;1760017;80;21541;-73
2022/05/30 01:35:54;;;;;;;3.90;2.05;;;;;;;15.44;61.70;99348.52;1757807;80;21105;-70
2022/05/30 01:38:24;;;;;;;2.92;2.12;;;;;;;15.42;61.98;99353.04;1742024;82;21060;-75
2022/05/30 01:40:52;;;;;;;2.72;2.15;;;;;;;15.40;62.23;99351.80;1773445;80;21476;-75
2022/05/30 01:43:19;;;;;;;3.90;2.27;;;;;;;15.37;62.61;99350.52;1724937;80;21079;-70
2022/05/30 01:45:48;;;;;;;3.12;2.20;;;;;;;15.33;63.28;99349.07;1774076;80;21048;-76
2022/05/30 01:48:14;;;;;;;4.58;2.27;;;;;;;15.31;63.55;99350.00;1774632;80;21498;-76
2022/05/30 01:50:41;;;;;;;3.95;2.20;;;;;;;15.31;63.70;99353.34;1747912;81;21437;-77
2022/05/30 01:53:11;;;;;;;4.83;2.42;;;;;;;15.31;63.98;99362.49;1725480;83;21028;-77
2022/05/30 01:55:41;;;;;;;4.78;2.20;;;;;;;15.31;64.23;99352.78;1725421;83;21026;-74
2022/05/30 01:58:10;;;;;;;4.20;2.10;;;;;;;15.31;64.79;99351.39;1745704;81;21091;-78
2022/05/30 02:00:55;;;;;;;8.88;2.35;;;;;;;15.31;64.93;99351.39;1727797;82;21521;-73
2022/05/30 02:03:21;;;;;;;3.10;2.35;;;;;;;15.31;65.42;99354.16;1711894;83;21468;-76
2022/05/30 02:05:48;;;;;;;8.93;3.00;;;;;;;15.29;65.51;99348.16;1747346;81;21011;-80
2022/05/30 02:08:18;;;;;;;7.45;2.95;;;;;;;15.30;66.01;99347.58;1732289;82;21080;-71
2022/05/30 02:10:44;;;;;;;4.42;2.30;;;;;;;15.31;66.16;99340.28;1732910;82;21009;-77
2022/05/30 02:13:12;;;;;;;4.50;2.37;;;;;;;15.32;66.50;99339.69;1729527;83;21060;-77
2022/05/30 02:18:45;;;;;;;2.65;2.05;;;;;;;15.34;66.89;99334.59;1703777;81;20971;-71
2022/05/30 02:21:12;;;;;;;2.75;2.08;;;;;;;15.36;67.16;99325.33;1750019;81;21523;-77
2022/05/30 02:23:40;;;;;;;5.55;2.90;;;;;;;15.39;67.23;99326.00;1729587;82;21015;-77
2022/05/30 02:26:06;;;;;;;6.58;2.75;;;;;;;15.43;67.36;99326.09;1747000;81;21968;-70
2022/05/30 02:28:35;;;;;;;6.58;2.85;;;;;;;15.44;67.51;99317.41;1719951;81;20983;-77
2022/05/30 02:31:01;;;;;;;4.47;2.52;;;;;;;15.46;67.54;99305.94;1744438;81;21011;-78
2022/05/30 02:39:01;;;;;;;4.53;2.52;;;;;;;15.45;67.95;99311.28;1733715;82;21212;-72
2022/05/30 02:41:44;;;;;;;3.95;2.67;;;;;;;15.42;68.34;99315.56;1701334;83;20984;-74
2022/05/30 02:44:17;;;;;;;5.90;2.60;;;;;;;15.41;68.63;99332.58;1718612;81;20999;-76
2022/05/30 02:46:44;;;;;;;4.33;3.15;;;;;;;15.41;68.93;99338.13;1744934;81;20999;-80
2022/05/30 02:49:10;;;;;;;4.05;2.70;;;;;;;15.42;69.26;99338.37;1746868;81;21113;-77
2022/05/30 02:51:37;;;;;;;4.33;2.50;;;;;;;15.42;69.66;99339.16;1747337;80;21133;-71
2022/05/30 02:54:06;;;;;;;8.00;2.27;;;;;;;15.40;70.14;99335.14;1748215;81;21458;-78
2022/05/30 02:56:55;;;;;;;6.25;2.67;;;;;;;15.36;70.61;99328.68;1770037;80;21070;-75
2022/05/30 02:59:22;;;;;;;4.70;3.17;;;;;;;15.36;71.08;99349.50;1746545;81;21105;-73
2022/05/30 03:01:51;;;;;;;4.05;2.90;;;;;;;15.36;71.25;99346.72;1759041;79;21562;-73
2022/05/30 03:04:19;;;;;;;3.92;2.70;;;;;;;15.35;71.50;99345.94;1749987;81;21052;-73
2022/05/30 03:06:53;;;;;;;3.80;2.67;;;;;;;15.34;71.67;99355.41;1749641;81;20979;-80
2022/05/30 03:09:20;;;;;;;3.37;2.60;;;;;;;15.36;71.89;99357.83;1746796;81;21042;-73
2022/05/30 03:11:49;;;;;;;4.42;2.60;;;;;;;15.38;72.06;99377.70;1735853;80;21496;-69
2022/05/30 03:14:17;;;;;;;4.47;2.75;;;;;;;15.40;71.99;99379.55;1748987;81;20968;-68
2022/05/30 03:16:43;;;;;;;3.98;2.98;;;;;;;15.42;72.15;99386.34;1752738;81;21123;-71
2022/05/30 03:19:12;;;;;;;4.35;2.75;;;;;;;15.45;72.50;99387.62;1764799;81;21619;-69
2022/05/30 03:21:39;;;;;;;5.10;2.83;;;;;;;15.45;72.56;99393.17;1748306;81;21034;-71
2022/05/30 03:24:08;;;;;;;7.08;2.92;;;;;;;15.45;72.60;99395.95;1747956;81;21004;-77
2022/05/30 03:26:36;;;;;;;6.17;2.90;;;;;;;15.48;72.61;99381.92;1745404;81;21015;-71
2022/05/30 03:29:04;;;;;;;4.35;2.70;;;;;;;15.50;72.69;99372.66;1751444;81;21058;-79
2022/05/30 03:31:30;;;;;;;8.88;2.77;;;;;;;15.52;72.72;99368.95;1748818;81;21086;-74
2022/05/30 03:33:58;;;;;;;5.15;2.87;;;;;;;15.56;72.73;99368.45;1746319;81;21047;-73
2022/05/30 03:36:29;;;;;;;5.40;3.22;;;;;;;15.60;72.93;99362.98;1746917;81;20984;-77
2022/05/30 03:39:14;;;;;;;4.50;3.00;;;;;;;15.64;72.83;99362.51;1749023;81;21038;-70
2022/05/30 03:42:01;;;;;;;5.65;3.58;;;;;;;15.67;72.79;99361.78;1749586;81;21173;-75
2022/05/30 03:44:43;;;;;;;;;;;;;;;15.67;72.95;99346.52;1749351;81;21034;-74
2022/05/30 03:47:10;;;;;;;4.62;3.30;;;;;;;15.68;73.08;99333.66;1746221;81;20164;-67
2022/05/30 03:49:41;;;;;;;9.58;2.95;;;;;;;15.70;72.99;99329.94;1745479;81;20987;-71
2022/05/30 03:52:08;;;;;;;6.03;3.05;;;;;;;15.74;73.06;99344.49;1746310;80;20968;-75
2022/05/30 03:54:37;;;;;;;6.33;2.50;;;;;;;15.78;73.08;99329.52;1747197;81;21817;-68
2022/05/30 03:57:06;;;;;;;4.50;3.27;;;;;;;15.80;73.08;99306.94;1743875;81;21024;-79
2022/05/30 03:59:33;;;;;;;6.55;3.10;;;;;;;15.80;72.93;99301.38;1745814;81;21054;-72
2022/05/30 04:02:01;;;;;;;8.78;3.40;;;;;;;15.80;73.10;99319.43;1747887;81;21015;-73
2022/05/30 04:04:28;;;;;;;5.12;3.52;;;;;;;15.78;73.05;99322.57;1747003;81;21039;-79
2022/05/30 04:06:55;;;;;;;5.30;3.33;;;;;;;15.78;73.22;99319.01;1747080;81;21222;-73
2022/05/30 04:09:22;;;;;;;12.55;4.22;;;;;;;15.77;73.43;99316.80;1751261;81;21047;-79
2022/05/30 04:12:10;;;;;;;4.60;2.58;;;;;;;15.76;73.65;99319.34;1692268;83;21547;-79
2022/05/30 04:14:59;;;;;;;7.45;4.53;;;;;;;15.75;73.78;99303.86;1688200;84;21506;-71
2022/05/30 04:17:28;;;;;;;4.72;3.47;;;;;;;15.77;74.04;99300.14;1719948;81;21456;-75
2022/05/30 04:19:57;;;;;;;3.75;3.12;;;;;;;15.77;74.32;99291.00;1715099;81;21183;-78
2022/05/30 04:22:24;;;;;;;7.03;3.70;;;;;;;15.78;74.60;99285.08;1744793;81;21018;-77
2022/05/30 04:24:58;;;;;;;7.25;3.62;;;;;;;15.80;74.77;99297.21;1740879;81;21039;-76
2022/05/30 04:27:25;;;;;;;5.08;3.77;;;;;;;15.79;74.89;99293.65;1750575;80;21011;-73
2022/05/30 04:29:55;;;;;;;8.08;3.83;;;;;;;15.82;75.06;99314.33;1747192;81;20979;-71
2022/05/30 04:32:26;;;;;;;7.37;4.35;;;;;;;15.85;75.32;99323.32;1748161;81;21258;-72
2022/05/30 04:34:55;;;;;;;6.28;4.12;;;;;;;15.88;75.40;99324.59;1746928;81;21544;-74
2022/05/30 04:37:24;;;;;;;5.00;4.00;;;;;;;15.90;75.47;99327.81;1751309;81;20987;-70
2022/05/30 04:39:56;;;;;;;7.37;4.22;;;;;;;15.89;75.60;99331.74;1751403;80;21035;-75
2022/05/30 04:42:45;;;;;;;6.50;3.90;;;;;;;15.91;75.52;99330.81;1750162;81;20983;-78
2022/05/30 04:45:31;;;;;;;7.20;3.92;;;;;;;15.90;75.57;99347.27;1745373;81;21892;-72
2022/05/30 04:48:16;;;;;;;4.92;3.50;;;;;;;15.91;75.61;99358.02;1746303;81;21035;-78
2022/05/30 04:50:43;;;;;;;11.08;4.00;;;;;;;15.91;75.77;99357.20;1744746;80;21051;-78
2022/05/30 04:53:09;;;;;;;4.72;3.50;;;;;;;15.91;76.06;99348.87;1744883;81;20979;-73
2022/05/30 04:55:57;;;;;;;4.03;2.87;;;;;;;15.91;76.18;99353.84;1734849;82;21568;-78
2022/05/30 04:58:34;;;;;;;4.55;3.52;;;;;;;15.90;76.30;99377.83;1673926;83;21071;-72
2022/05/30 05:01:08;;;;;;;7.30;3.05;;;;;;;15.88;76.52;99385.70;1748354;81;20999;-77
2022/05/30 05:03:38;;;;;;;8.88;3.17;;;;;;;15.88;76.75;99402.38;1765112;80;21099;-75
2022/05/30 05:06:11;;;;;;;6.00;3.75;;;;;;;15.88;77.07;99423.98;1751212;81;21583;-69
2022/05/30 05:08:54;;;;;;;5.30;3.67;;;;;;;15.89;77.33;99435.34;1738260;82;21032;-74
2022/05/30 05:11:31;;;;;;;4.83;3.50;;;;;;;15.88;77.46;99435.70;1753855;80;21131;-77
2022/05/30 05:14:17;;;;;;;4.62;3.37;;;;;;;15.89;77.56;99427.59;1759779;81;21048;-75
2022/05/30 05:17:05;;;;;;;5.80;3.40;;;;;;;15.91;77.88;99439.97;1743567;81;20999;-78
2022/05/30 05:19:34;;;;;;;4.17;3.22;;;;;;;15.90;78.05;99420.88;1735321;81;21514;-76
2022/05/30 05:22:01;;;;;;;9.40;4.03;;;;;;;15.89;78.32;99437.31;1701420;82;21789;-68
2022/05/30 05:24:30;;;;;;;6.47;3.50;;;;;;;15.89;78.49;99433.14;1727292;81;21031;-76
2022/05/30 05:27:16;;;;;;;5.00;3.52;;;;;;;15.88;78.65;99435.11;1724585;81;21067;-75
2022/05/30 05:29:45;;;;;;;7.22;4.28;;;;;;;15.87;78.85;99439.06;1740249;81;21308;-71
2022/05/30 05:32:13;;;;;;;3.85;3.05;;;;;;;15.86;79.09;99436.64;1726584;82;20987;-79
2022/05/30 05:34:41;;;;;;;4.33;2.62;;;;;;;15.86;79.17;99426.34;1754922;81;21054;-80
2022/05/30 05:37:10;;;;;;;8.83;3.58;;;;;;;15.87;79.13;99427.13;1745359;82;21544;-75
2022/05/30 05:39:50;;;;;;;6.40;3.72;;;;;;;15.88;79.21;99421.81;1756854;80;21052;-70
2022/05/30 05:42:18;;;;;;;4.17;3.00;;;;;;;15.89;79.49;99428.97;1761160;80;21027;-75
2022/05/30 05:44:45;;;;;;;4.87;3.17;;;;;;;15.88;79.56;99443.44;1720510;81;21072;-77
2022/05/30 05:47:13;;;;;;;4.53;3.17;;;;;;;15.88;79.70;99438.48;1730323;82;21495;-76
2022/05/30 05:49:40;;;;;;;8.95;3.67;;;;;;;15.88;79.89;99419.83;1725309;82;21091;-78
2022/05/30 05:52:11;;;;;;;5.47;3.45;;;;;;;15.90;80.06;99432.00;1732565;81;21562;-75
2022/05/30 05:54:37;;;;;;;5.47;3.55;;;;;;;15.90;80.16;99423.06;1759445;81;21051;-70
2022/05/30 05:57:09;;;;;;;6.58;3.20;;;;;;;15.91;80.25;99407.20;1751640;81;21469;-75
2022/05/30 05:59:41;;;;;;;9.77;3.80;;;;;;;15.92;80.46;99419.92;1728554;81;21623;-77
2022/05/30 06:02:10;;;;;;;5.12;3.25;;;;;;;15.93;80.70;99426.50;1724978;82;21460;-79
2022/05/30 06:04:39;;;;;;;6.28;3.40;;;;;;;15.96;80.78;99415.84;1751190;81;21019;-78
2022/05/30 06:07:24;;;;;;;5.95;3.22;;;;;;;15.98;80.76;99426.02;1751541;81;21004;-76
2022/05/30 06:10:06;;;;;;;6.45;3.27;;;;;;;16.00;80.92;99436.23;1722818;81;21054;-74
2022/05/30 06:12:46;;;;;;;8.63;3.12;;;;;;;16.01;80.79;99444.20;1753552;81;21086;-69
2022/05/30 06:15:16;;;;;;;4.20;2.70;;;;;;;16.01;80.92;99449.76;1754071;81;21003;-79
2022/05/30 06:17:56;;;;;;;9.53;3.45;;;;;;;16.00;80.85;99439.01;1753112;81;21023;-72
2022/05/30 06:20:25;;;;;;;9.33;2.95;;;;;;;15.99;80.81;99431.82;1750432;81;21023;-77
2022/05/30 06:22:56;;;;;;;11.75;3.27;;;;;;;15.98;80.93;99435.17;1749595;80;21129;-71
2022/05/30 06:25:42;;;;;;;4.90;3.02;;;;;;;15.98;80.92;99429.61;1728851;81;21508;-79
2022/05/30 06:28:31;;;;;;;6.30;2.80;;;;;;;15.97;80.96;99417.47;1753786;80;21971;-81
2022/05/30 06:31:08;;;;;;;3.98;2.65;;;;;;;15.94;81.01;99403.70;1750837;80;20992;-80
2022/05/30 06:33:35;;;;;;;4.10;2.08;;;;;;;15.93;81.16;99378.48;1743325;81;21015;-71
2022/05/30 06:36:07;;;;;;;3.55;2.33;;;;;;;15.92;81.26;99369.91;1749736;80;21082;-79
2022/05/30 06:38:36;;;;;;;3.65;1.80;;;;;;;15.88;81.51;99355.15;1742221;81;21039;-70
2022/05/30 06:41:19;;;;;;;4.08;1.75;;;;;;;15.87;81.55;99349.34;1735959;81;21487;-83
2022/05/30 06:43:46;;;;;;;1.60;1.40;;;;;;;15.86;81.53;99342.19;1742791;81;21039;-81
2022/05/30 06:46:34;;;;;;;11.15;3.50;;;;;;;15.88;81.65;99332.32;1736111;81;20996;-80
2022/05/30 06:49:20;;;;;;;1.70;1.40;;;;;;;15.88;81.90;99319.81;1744869;81;21109;-72
2022/05/30 06:51:48;;;;;;;2.25;2.05;;;;;;;15.91;82.02;99311.36;1745194;80;21492;-74
2022/05/30 06:54:17;;;;;;;2.92;2.22;;;;;;;15.91;81.95;99299.67;1742272;80;21014;-79
2022/05/30 06:59:31;;;;;;;2.98;2.12;;;;;;;15.87;82.17;99304.91;1743625;80;21598;-72
2022/05/30 07:02:04;;;;;;;3.30;2.00;;;;;;;15.87;82.23;99301.55;1737209;81;21106;-77
2022/05/30 07:04:51;;;;;;;3.25;2.15;;;;;;;15.85;82.21;99310.83;1740999;81;21023;-78
2022/05/30 07:07:23;;;;;;;3.05;1.75;;;;;;;15.83;82.10;99284.02;1742481;80;21163;-73
2022/05/30 07:10:10;;;;;;;2.98;2.15;;;;;;;15.70;82.06;99283.30;1737328;81;20993;-78
2022/05/30 07:12:38;;;;;;;3.27;1.92;;;;;;;15.64;82.48;99288.34;1741327;80;21054;-72
2022/05/30 07:15:07;;;;;;;2.98;2.60;;;;;;;15.63;82.79;99278.95;1740863;81;21469;-80
2022/05/30 07:17:34;;;;;;;3.65;2.20;;;;;;;15.64;82.92;99280.02;1741721;80;21019;-74
2022/05/30 07:20:02;;;;;;;6.08;3.27;;;;;;;15.65;82.86;99276.64;1715640;81;21101;-75
2022/05/30 07:22:31;;;;;;;3.20;2.17;;;;;;;15.64;82.85;99261.97;1726648;81;21083;-78
2022/05/30 07:25:16;;;;;;;3.17;2.22;;;;;;;15.64;82.87;99266.70;1679362;84;21077;-75
2022/05/30 07:27:49;;;;;;;4.45;2.37;;;;;;;15.62;82.90;99271.80;1690823;81;21595;-78
2022/05/30 07:30:20;;;;;;;2.83;2.33;;;;;;;15.60;82.97;99268.58;1679046;81;21063;-71
2022/05/30 07:33:05;;;;;;;2.83;2.00;;;;;;;15.58;83.12;99252.28;1733118;81;21583;-78
2022/05/30 07:35:54;;;;;;;5.58;2.80;;;;;;;15.61;83.25;99252.16;1750883;81;21039;-70
2022/05/30 07:38:28;;;;;;;3.70;2.50;;;;;;;15.64;83.21;99245.87;1750440;81;21047;-77
2022/05/30 07:41:03;;;;;;;6.03;2.65;;;;;;;15.66;83.12;99238.00;1706071;81;21318;-72
2022/05/30 07:43:37;;;;;;;2.77;2.37;;;;;;;15.68;83.27;99237.84;1738484;81;21043;-73
2022/05/30 07:46:13;;;;;;;5.03;2.60;;;;;;;15.73;83.29;99236.75;1748953;81;21102;-78
2022/05/30 07:48:43;;;;;;;6.30;3.33;;;;;;;15.76;83.27;99244.95;1738731;81;21106;-81
2022/05/30 07:51:13;;;;;;;4.67;2.87;;;;;;;15.76;83.06;99254.08;1735812;81;21066;-70
2022/05/30 07:53:45;;;;;;;4.50;2.90;;;;;;;15.74;82.99;99261.17;1717053;83;21037;-75
2022/05/30 07:56:22;;;;;;;3.55;2.47;;;;;;;15.73;82.92;99249.25;1696142;83;21097;-77
2022/05/30 07:58:51;;;;;;;3.80;2.60;;;;;;;15.75;82.83;99258.03;1722031;83;21622;-78
2022/05/30 08:01:20;;;;;;;4.00;2.70;;;;;;;15.75;82.78;99286.38;1692261;83;21090;-73
2022/05/30 08:03:49;;;;;;;5.45;3.08;;;;;;;15.76;82.69;99283.84;1719535;83;21063;-78
2022/05/30 08:06:34;;;;;;;6.05;3.35;;;;;;;15.76;82.68;99294.34;1720204;83;21503;-69
2022/05/30 08:09:09;;;;;;;4.78;2.92;;;;;;;15.79;82.62;99295.61;1719810;83;21364;-70
2022/05/30 08:11:38;;;;;;;5.30;3.33;;;;;;;15.77;82.45;99295.16;1718785;82;21871;-76
2022/05/30 08:14:07;;;;;;;5.95;3.30;;;;;;;15.80;82.56;99288.88;1719104;83;21040;-79
2022/05/30 08:16:37;;;;;;;5.37;3.42;;;;;;;15.82;82.67;99283.20;1720381;83;21041;-74
2022/05/30 08:19:04;;;;;;;9.48;3.83;;;;;;;15.87;82.78;99270.18;1697208;83;21152;-78
2022/05/30 08:21:34;;;;;;;13.40;3.80;;;;;;;15.92;83.06;99268.52;1720776;83;21044;-73
2022/05/30 08:24:02;;;;;;;4.92;3.30;;;;;;;15.98;83.27;99260.70;1723589;82;21059;-78
2022/05/30 08:26:30;;;;;;;5.10;3.45;;;;;;;16.03;83.38;99266.02;1722617;83;21529;-78
2022/05/30 08:29:08;;;;;;;5.45;3.77;;;;;;;16.06;83.39;99276.39;1703171;83;21016;-73
2022/05/30 08:31:36;;;;;;;3.58;3.00;;;;;;;16.09;83.42;99287.38;1722870;83;21059;-79
2022/05/30 08:34:18;;;;;;;4.70;3.33;;;;;;;16.08;83.04;99288.53;1720260;83;21066;-70
2022/05/30 08:36:47;;;;;;;6.30;3.87;;;;;;;16.08;82.81;99300.46;1720739;83;21151;-77
2022/05/30 08:42:00;;;;;;;6.30;3.83;;;;;;;16.05;82.71;99292.25;1695217;83;21034;-68
2022/05/30 08:44:34;;;;;;;8.20;3.55;;;;;;;16.08;82.89;99288.53;1718287;83;21071;-73
2022/05/30 08:47:50;;;;;;;4.60;3.77;;;;;;;16.11;83.07;99289.19;1720140;83;21042;-77
2022/05/30 08:50:44;;;;;;;4.95;4.03;;;;;;;16.16;82.97;99291.11;1694419;83;21597;-73
2022/05/30 08:53:36;;;;;;;8.85;4.12;;;;;;;16.15;82.84;99288.12;1735178;81;21054;-76
2022/05/30 08:56:31;;;;;;;5.85;3.80;;;;;;;16.20;83.01;99285.63;1747545;81;21571;-77
2022/05/30 08:59:36;;;;;;;6.03;3.80;;;;;;;16.27;83.36;99283.59;1748082;81;21086;-79
2022/05/30 09:02:07;;;;;;;5.10;3.58;;;;;;;16.36;83.68;99287.55;1716266;81;21078;-78
2022/05/30 09:04:48;;;;;;;9.60;4.35;;;;;;;16.44;83.66;99297.64;1739883;81;21071;-78
2022/05/30 09:07:26;;;;;;;5.60;4.15;;;;;;;16.48;83.42;99295.73;1716432;82;21059;-81
2022/05/30 09:10:13;;;;;;;10.38;4.00;;;;;;;16.53;83.19;99282.14;1717783;82;21121;-74
2022/05/30 09:12:50;;;;;;;6.85;4.03;;;;;;;16.60;83.30;99275.30;1724906;82;21103;-80
2022/05/30 09:15:25;;;;;;;10.58;4.03;;;;;;;16.67;83.18;99274.06;1716732;82;21014;-76
2022/05/30 09:18:02;;;;;;;6.95;4.40;;;;;;;16.76;83.32;99271.05;1717907;82;21817;-80
2022/05/30 09:20:31;;;;;;;7.92;4.37;;;;;;;16.88;82.94;99281.79;1716811;82;21055;-80
2022/05/30 09:23:03;;;;;;;8.20;4.33;;;;;;;16.98;82.91;99285.36;1716779;82;20991;-71
2022/05/30 09:28:35;;;;;;;6.58;4.50;;;;;;;17.18;82.92;99288.72;1715987;80;21022;-74
2022/05/30 09:31:51;;;;;;;6.75;4.45;;;;;;;17.34;82.88;99292.75;1729236;83;21159;-79
2022/05/30 09:34:36;;;;;;;6.20;4.45;;;;;;;17.49;82.20;99275.11;1746561;81;20984;-76
2022/05/30 09:37:34;;;;;;;8.18;4.30;;;;;;;17.66;81.99;99274.97;1736217;81;21090;-80
2022/05/30 09:40:09;;;;;;;12.10;4.35;;;;;;;17.73;80.91;99268.09;1732211;81;21031;-76
2022/05/30 09:42:48;;;;;;;7.80;4.08;;;;;;;17.75;80.16;99266.55;1743743;81;21014;-78
2022/05/30 09:45:28;;;;;;;7.83;4.72;;;;;;;17.78;79.56;99259.41;1756165;81;21635;-74
2022/05/30 09:48:08;;;;;;;7.62;4.08;;;;;;;17.80;79.27;99259.03;1745880;81;21039;-78
2022/05/30 09:50:57;;;;;;;8.20;4.12;;;;;;;17.82;78.75;99245.54;1756565;81;21026;-70
2022/05/30 09:53:43;;;;;;;6.53;4.55;;;;;;;17.83;78.72;99254.09;1742121;81;21097;-75
2022/05/30 09:56:17;;;;;;;10.98;4.65;;;;;;;17.86;78.89;99258.33;1732615;82;21021;-67
2022/05/30 09:58:50;;;;;;;7.30;4.55;;;;;;;17.90;78.68;99256.99;1732331;82;21096;-80
2022/05/30 10:01:32;;;;;;;13.75;5.20;;;;;;;17.91;78.46;99261.41;1728085;83;21071;-70
2022/05/30 10:04:36;;;;;;;8.05;5.10;;;;;;;17.93;78.54;99249.27;1744070;80;21016;-69
2022/05/30 10:07:18;;;;;;;9.35;4.60;;;;;;;17.94;78.52;99248.69;1758737;81;21067;-73
2022/05/30 10:10:13;;;;;;;7.70;4.87;;;;;;;17.98;78.58;99253.73;1727984;81;21512;-73
2022/05/30 10:12:44;;;;;;;8.25;4.20;;;;;;;17.98;78.38;99248.16;1746535;81;21200;-79
2022/05/30 10:15:38;;;;;;;13.08;4.90;;;;;;;17.97;78.13;99247.93;1731903;82;21551;-71
2022/05/30 10:18:28;;;;;;;9.08;5.55;;;;;;;17.96;78.30;99249.13;1735331;82;21016;-76
2022/05/30 10:21:28;;;;;;;15.00;4.85;;;;;;;17.94;78.61;99240.33;1755097;81;21094;-68
2022/05/30 10:28:16;;;;;;;13.35;5.40;;;;;;;17.95;78.88;99226.59;1681109;84;21990;-69
2022/05/30 10:31:37;;;;;;;11.80;4.78;;;;;;;17.94;79.12;99229.18;1724155;82;21611;-72
2022/05/30 10:34:28;;;;;;;19.45;5.72;;;;;;;17.92;78.99;99229.56;1695100;81;21097;-73
2022/05/30 10:37:25;;;;;;;8.88;4.95;;;;;;;17.91;79.10;99223.78;1676030;82;21575;-76
2022/05/30 10:40:19;;;;;;;13.72;5.65;;;;;;;17.90;79.06;99226.34;1726088;81;21086;-70
2022/05/30 10:43:07;;;;;;;18.12;6.62;;;;;;;17.90;78.83;99220.77;1744029;80;21797;-75
2022/05/30 10:45:49;;;;;;;6.12;4.92;;;;;;;17.89;78.76;99210.81;1746309;80;21110;-69
2022/05/30 10:48:21;;;;;;;11.60;5.67;;;;;;;17.87;78.82;99221.53;1750836;81;21018;-76
2022/05/30 10:50:57;;;;;;;16.57;7.15;;;;;;;17.86;78.92;99217.15;1743885;81;20995;-77
2022/05/30 10:53:58;;;;;;;10.68;4.97;;;;;;;17.82;79.17;99213.50;1707371;82;21043;-76
2022/05/30 10:56:52;;;;;;;8.75;5.12;;;;;;;17.84;79.51;99211.14;1746054;82;21089;-72
2022/05/30 10:59:41;;;;;;;12.90;6.00;;;;;;;17.92;79.89;99210.63;1730590;82;20997;-73
2022/05/30 11:02:46;;;;;;;11.68;5.40;;;;;;;17.98;80.00;99215.50;1738615;81;21064;-69
2022/05/30 11:05:38;;;;;;;8.28;5.08;;;;;;;18.05;80.01;99211.22;1732340;82;23082;-77
2022/05/30 11:08:24;;;;;;;14.70;6.60;;;;;;;18.12;79.81;99209.31;1736070;82;21106;-74
2022/05/30 11:10:59;;;;;;;10.80;5.62;;;;;;;18.17;79.69;99214.38;1707814;82;21824;-70
2022/05/30 11:13:59;;;;;;;10.60;5.33;;;;;;;18.20;79.52;99199.67;1729167;82;21016;-69
2022/05/30 11:16:51;;;;;;;9.15;5.40;;;;;;;18.19;79.33;99205.02;1733594;82;21052;-73
2022/05/30 11:20:10;;;;;;;10.35;5.80;;;;;;;18.13;79.14;99219.30;1727492;82;21122;-72
2022/05/30 11:22:49;;;;;;;14.45;5.67;;;;;;;18.06;79.36;99213.63;1728474;82;21087;-77
2022/05/30 11:25:19;;;;;;;13.25;5.42;;;;;;;18.03;79.74;99211.59;1732782;82;21858;-76
2022/05/30 11:27:57;;;;;;;9.63;5.75;;;;;;;18.01;80.10;99213.34;1735364;82;21454;-78
2022/05/30 11:30:54;;;;;;;9.33;5.62;;;;;;;18.04;80.39;99212.38;1734789;82;21537;-78
2022/05/30 11:33:35;;;;;;;12.47;6.25;;;;;;;18.05;80.67;99206.42;1736600;82;21044;-77
2022/05/30 11:36:29;;;;;;;11.57;6.28;;;;;;;18.08;81.00;99205.66;1733444;81;21036;-76
2022/05/30 11:39:32;;;;;;;12.73;5.35;;;;;;;18.11;81.16;99198.55;1731113;82;21096;-78
2022/05/30 11:42:16;;;;;;;12.00;6.37;;;;;;;18.14;81.26;99190.84;1736316;82;20997;-74
2022/05/30 11:44:50;;;;;;;18.37;6.72;;;;;;;18.15;81.41;99201.41;1733630;81;21064;-76
2022/05/30 11:47:56;;;;;;;10.85;6.53;;;;;;;18.17;81.69;99193.47;1705002;82;21044;-75
2022/05/30 11:50:56;;;;;;;14.73;6.22;;;;;;;18.22;81.71;99199.50;1735196;82;21021;-79
2022/05/30 11:54:01;;;;;;;9.40;6.03;;;;;;;18.27;81.55;99189.98;1732441;82;21573;-77
2022/05/30 11:56:51;;;;;;;15.63;7.05;;;;;;;18.33;81.65;99192.66;1736060;80;22392;-68
2022/05/30 11:59:56;;;;;;;9.68;6.17;;;;;;;18.39;81.40;99192.32;1740142;80;21078;-72
2022/05/30 12:02:28;;;;;;;11.68;6.08;;;;;;;18.41;81.10;99196.32;1743852;80;20999;-73
2022/05/30 12:05:04;;;;;;;11.60;6.00;;;;;;;18.41;81.02;99196.32;1738971;82;21039;-79
2022/05/30 12:07:56;;;;;;;9.48;5.75;;;;;;;18.44;81.12;99201.74;1737749;82;21620;-68
2022/05/30 12:10:40;;;;;;;12.45;5.45;;;;;;;18.50;81.26;99194.63;1747313;80;21039;-78
2022/05/30 12:13:33;;;;;;;9.28;5.53;;;;;;;18.58;80.90;99194.09;1741393;82;21014;-76
2022/05/30 12:16:28;;;;;;;8.93;5.80;;;;;;;18.66;80.87;99188.82;1739604;82;21019;-79
2022/05/30 12:24:57;;;;;;;12.15;6.35;;;;;;;18.90;80.44;99203.37;1736169;80;21101;-78
2022/05/30 12:27:34;;;;;;;10.35;6.40;;;;;;;18.97;80.10;99212.39;1744002;81;21019;-71
2022/05/30 12:30:08;;;;;;;7.97;5.78;;;;;;;19.02;79.83;99204.28;1742317;82;21025;-71
2022/05/30 12:32:42;;;;;;;16.15;6.80;;;;;;;19.05;79.96;99200.13;1731069;82;21131;-81
2022/05/30 12:35:22;;;;;;;13.00;7.22;;;;;;;19.10;79.89;99201.76;1709751;81;21104;-76
2022/05/30 12:38:07;;;;;;;8.25;5.55;;;;;;;19.13;79.72;99202.98;1713764;82;21043;-73
2022/05/30 12:40:54;;;;;;;11.30;4.85;;;;;;;19.16;79.63;99200.23;1736432;82;21476;-80
2022/05/30 12:43:43;;;;;;;88.33;17.73;;;;;;;19.19;79.05;99207.05;1739268;82;21082;-75
2022/05/30 12:46:19;;;;;;;8.13;5.22;;;;;;;19.19;78.56;99207.83;1739427;82;26894;-78